createdAt,value
2022-08-12T00:00:02.354Z,101779.28
2022-08-12T00:02:28.587Z,101777.84
2022-08-12T00:04:54.795Z,101778.88
2022-08-12T00:07:21.022Z,101778.31
2022-08-12T00:09:47.242Z,101786.00
2022-08-12T00:12:15.619Z,101780.63
2022-08-12T00:14:41.934Z,101785.41
2022-08-12T00:17:08.157Z,101789.31
2022-08-12T00:19:34.385Z,101786.88
2022-08-12T00:22:00.603Z,101783.44
2022-08-12T00:24:26.837Z,101779.09
2022-08-12T00:26:53.050Z,101784.88
2022-08-12T00:29:19.271Z,101790.78
2022-08-12T00:31:45.492Z,101785.63
2022-08-12T00:34:11.724Z,101783.47
2022-08-12T00:36:37.951Z,101792.16
2022-08-12T00:39:04.453Z,101786.22
2022-08-12T00:41:30.676Z,101788.41
2022-08-12T00:43:56.924Z,101783.50
2022-08-12T00:46:23.152Z,101786.84
2022-08-12T00:48:49.399Z,101781.78
2022-08-12T00:51:15.610Z,101785.09
2022-08-12T00:53:42.518Z,101785.66
2022-08-12T00:56:08.753Z,101789.84
2022-08-12T00:58:34.995Z,101794.91
2022-08-12T01:01:01.251Z,101787.25
2022-08-12T01:03:27.535Z,101791.47
2022-08-12T01:05:53.764Z,101785.25
2022-08-12T01:08:20.045Z,101782.81
2022-08-12T01:10:46.253Z,101783.09
2022-08-12T01:13:19.831Z,101781.50
2022-08-12T01:15:46.647Z,101785.25
2022-08-12T01:18:12.897Z,101785.38
2022-08-12T01:20:39.123Z,101784.69
2022-08-12T01:23:05.356Z,101780.19
2022-08-12T01:25:31.622Z,101783.94
2022-08-12T01:27:57.884Z,101785.09
2022-08-12T01:30:24.108Z,101785.50
2022-08-12T01:32:50.333Z,101786.09
2022-08-12T01:35:16.633Z,101783.94
2022-08-12T01:37:42.884Z,101783.63
2022-08-12T01:40:33.444Z,101779.72
2022-08-12T01:42:55.339Z,101787.59
2022-08-12T01:45:21.559Z,101795.06
2022-08-12T01:47:47.892Z,101793.47
2022-08-12T01:50:14.108Z,101790.16
2022-08-12T01:52:40.617Z,101801.34
2022-08-12T01:55:07.029Z,101796.16
2022-08-12T01:57:58.732Z,101791.97
2022-08-12T02:00:19.596Z,101801.34
2022-08-12T02:02:45.899Z,101798.00
2022-08-12T02:05:12.178Z,101794.41
2022-08-12T02:07:38.566Z,101794.28
2022-08-12T02:10:04.790Z,101790.53
2022-08-12T02:12:31.423Z,101784.94
2022-08-12T02:14:57.693Z,101784.94
2022-08-12T02:17:54.823Z,101783.19
2022-08-12T02:20:11.644Z,101776.00
2022-08-12T02:22:38.031Z,101776.28
2022-08-12T02:25:04.277Z,101782.88
2022-08-12T02:27:30.524Z,101787.03
2022-08-12T02:29:56.736Z,101790.03
2022-08-12T02:32:22.976Z,101784.28
2022-08-12T02:34:49.192Z,101781.22
2022-08-12T02:37:15.449Z,101788.09
2022-08-12T02:39:41.726Z,101785.63
2022-08-12T02:42:08.017Z,101789.63
2022-08-12T02:44:34.271Z,101787.31
2022-08-12T02:47:00.508Z,101784.09
2022-08-12T02:49:26.731Z,101788.25
2022-08-12T02:51:52.959Z,101783.31
2022-08-12T02:54:19.201Z,101778.28
2022-08-12T02:56:47.200Z,101782.84
2022-08-12T02:59:17.827Z,101785.72
2022-08-12T03:01:48.172Z,101778.06
2022-08-12T03:04:20.492Z,101783.94
2022-08-12T03:06:47.499Z,101777.69
2022-08-12T03:09:13.718Z,101782.44
2022-08-12T03:11:47.766Z,101780.81
2022-08-12T03:14:15.254Z,101788.44
2022-08-12T03:16:41.498Z,101784.38
2022-08-12T03:19:07.724Z,101784.88
2022-08-12T03:21:54.680Z,101780.53
2022-08-12T03:24:20.192Z,101780.81
2022-08-12T03:26:46.442Z,101787.41
2022-08-12T03:29:12.655Z,101790.38
2022-08-12T03:31:38.903Z,101782.47
2022-08-12T03:34:05.111Z,101790.31
2022-08-12T03:36:31.333Z,101784.25
2022-08-12T03:38:57.542Z,101785.09
2022-08-12T03:41:23.756Z,101790.69
2022-08-12T03:43:49.953Z,101791.56
2022-08-12T03:46:16.200Z,101791.56
2022-08-12T03:48:42.413Z,101795.28
2022-08-12T03:51:08.643Z,101791.84
2022-08-12T03:53:34.884Z,101794.66
2022-08-12T03:56:01.105Z,101797.41
2022-08-12T03:58:27.332Z,101795.56
2022-08-12T04:00:53.605Z,101801.00
2022-08-12T04:03:19.902Z,101801.16
2022-08-12T04:05:55.690Z,101802.25
2022-08-12T04:08:22.774Z,101804.13
2022-08-12T04:10:48.984Z,101805.25
2022-08-12T04:13:15.212Z,101808.97
2022-08-12T04:15:41.418Z,101805.53
2022-08-12T04:18:08.089Z,101807.34
2022-08-12T04:20:34.462Z,101806.91
2022-08-12T04:23:00.692Z,101803.66
2022-08-12T04:25:26.905Z,101805.69
2022-08-12T04:27:53.156Z,101812.97
2022-08-12T04:30:32.608Z,101802.94
2022-08-12T04:32:59.720Z,101812.63
2022-08-12T04:35:25.948Z,101810.34
2022-08-12T04:37:59.003Z,101813.69
2022-08-12T04:40:28.535Z,101808.84
2022-08-12T04:42:55.118Z,101815.78
2022-08-12T04:45:22.590Z,101805.72
2022-08-12T04:47:49.095Z,101811.78
2022-08-12T04:50:35.296Z,101811.66
2022-08-12T04:53:01.592Z,101809.56
2022-08-12T04:55:28.029Z,101809.16
2022-08-12T04:57:54.297Z,101806.16
2022-08-12T05:00:20.545Z,101811.22
2022-08-12T05:02:47.155Z,101805.50
2022-08-12T05:05:13.476Z,101812.44
2022-08-12T05:07:47.825Z,101814.91
2022-08-12T05:10:21.317Z,101814.41
2022-08-12T05:12:59.481Z,101825.78
2022-08-12T05:15:29.177Z,101813.59
2022-08-12T05:17:56.211Z,101811.25
2022-08-12T05:20:26.236Z,101818.91
2022-08-12T05:22:57.505Z,101815.63
2022-08-12T05:25:25.317Z,101813.09
2022-08-12T05:27:59.211Z,101815.16
2022-08-12T05:30:25.987Z,101816.22
2022-08-12T05:32:53.763Z,101818.16
2022-08-12T05:35:20.123Z,101819.19
2022-08-12T05:37:48.770Z,101809.44
2022-08-12T05:40:15.233Z,101813.22
2022-08-12T05:42:41.882Z,101819.03
2022-08-12T05:45:08.518Z,101821.81
2022-08-12T05:47:52.261Z,101823.69
2022-08-12T05:50:19.439Z,101820.03
2022-08-12T05:52:45.701Z,101823.06
2022-08-12T05:55:14.612Z,101823.09
2022-08-12T05:57:41.122Z,101825.25
2022-08-12T06:00:07.451Z,101820.81
2022-08-12T06:02:33.706Z,101825.59
2022-08-12T06:05:00.016Z,101824.00
2022-08-12T06:07:40.030Z,101833.94
2022-08-12T06:10:12.808Z,101830.50
2022-08-12T06:12:39.254Z,101830.78
2022-08-12T06:15:05.631Z,101836.72
2022-08-12T06:17:31.915Z,101829.50
2022-08-12T06:20:26.632Z,101839.75
2022-08-12T06:22:44.733Z,101839.03
2022-08-12T06:25:11.160Z,101842.94
2022-08-12T06:28:06.480Z,101842.19
2022-08-12T06:30:36.868Z,101844.06
2022-08-12T06:33:11.805Z,101839.56
2022-08-12T06:35:49.781Z,101843.00
2022-08-12T06:38:16.506Z,101834.59
2022-08-12T06:40:42.771Z,101836.41
2022-08-12T06:43:09.047Z,101826.41
2022-08-12T06:45:46.175Z,101829.88
2022-08-12T06:48:13.306Z,101835.19
2022-08-12T06:50:40.269Z,101830.50
2022-08-12T06:53:06.784Z,101832.31
2022-08-12T06:55:33.084Z,101837.59
2022-08-12T06:58:06.809Z,101828.97
2022-08-12T07:00:36.377Z,101835.09
2022-08-12T07:03:16.318Z,101827.50
2022-08-12T07:05:48.874Z,101831.94
2022-08-12T07:08:17.234Z,101835.59
2022-08-12T07:10:43.538Z,101833.78
2022-08-12T07:13:09.964Z,101833.88
2022-08-12T07:15:36.291Z,101829.28
2022-08-12T07:18:02.645Z,101832.28
2022-08-12T07:20:51.167Z,101832.19
2022-08-12T07:23:15.200Z,101836.88
2022-08-12T07:25:41.855Z,101837.94
2022-08-12T07:28:09.156Z,101842.63
2022-08-12T07:30:42.852Z,101842.53
2022-08-12T07:33:09.315Z,101848.97
2022-08-12T07:35:35.637Z,101841.59
2022-08-12T07:38:01.951Z,101842.56
2022-08-12T07:40:28.416Z,101849.84
2022-08-12T07:42:54.717Z,101852.28
2022-08-12T07:45:20.963Z,101857.00
2022-08-12T07:47:47.303Z,101850.50
2022-08-12T07:50:13.600Z,101854.13
2022-08-12T07:52:40.028Z,101845.88
2022-08-12T07:55:06.545Z,101842.97
2022-08-12T07:57:33.030Z,101841.94
2022-08-12T07:59:59.385Z,101841.59
2022-08-12T08:02:26.675Z,101835.94
2022-08-12T08:04:53.577Z,101838.84
2022-08-12T08:07:19.987Z,101839.00
2022-08-12T08:09:46.301Z,101827.16
2022-08-12T08:12:19.186Z,101838.00
2022-08-12T08:14:45.947Z,101825.75
2022-08-12T08:17:14.723Z,101820.91
2022-08-12T08:20:02.961Z,101823.81
2022-08-12T08:22:40.734Z,101825.84
2022-08-12T08:25:34.826Z,101827.41
2022-08-12T08:27:55.061Z,101828.78
2022-08-12T08:30:21.379Z,101833.94
2022-08-12T08:32:47.814Z,101821.34
2022-08-12T08:35:14.035Z,101827.34
2022-08-12T08:37:41.072Z,101831.28
2022-08-12T08:40:07.733Z,101824.22
2022-08-12T08:42:34.020Z,101827.50
2022-08-12T08:45:00.362Z,101823.31
2022-08-12T08:47:26.699Z,101818.13
2022-08-12T08:49:53.033Z,101823.09
2022-08-12T08:52:40.443Z,101824.09
2022-08-12T08:55:05.524Z,101823.69
2022-08-12T08:57:42.880Z,101821.06
2022-08-12T09:00:10.758Z,101820.03
2022-08-12T09:02:41.827Z,101806.03
2022-08-12T09:05:24.889Z,101811.88
2022-08-12T09:08:08.804Z,101811.16
2022-08-12T09:10:38.266Z,101811.78
2022-08-12T09:13:06.212Z,101816.22
2022-08-12T09:15:35.843Z,101814.94
2022-08-12T09:18:02.538Z,101819.72
2022-08-12T09:20:31.583Z,101828.00
2022-08-12T09:22:57.903Z,101810.38
2022-08-12T09:25:26.202Z,101813.03
2022-08-12T09:28:03.922Z,101813.75
2022-08-12T09:30:42.028Z,101807.44
2022-08-12T09:33:19.247Z,101816.25
2022-08-12T09:36:04.510Z,101809.97
2022-08-12T09:38:31.991Z,101807.78
2022-08-12T09:42:08.824Z,101807.41
2022-08-12T09:43:53.531Z,101797.88
2022-08-12T09:46:25.416Z,101792.53
2022-08-12T09:48:56.263Z,101789.09
2022-08-12T09:51:23.485Z,101788.34
2022-08-12T09:54:08.851Z,101780.94
2022-08-12T09:56:58.210Z,101771.97
2022-08-12T10:00:12.798Z,101780.44
2022-08-12T10:02:44.049Z,101775.06
2022-08-12T10:04:55.202Z,101766.66
2022-08-12T10:07:24.831Z,101762.44
2022-08-12T10:09:58.241Z,101766.47
2022-08-12T10:12:32.884Z,101758.34
2022-08-12T10:15:00.004Z,101760.34
2022-08-12T10:17:26.393Z,101750.19
2022-08-12T10:19:53.186Z,101749.84
2022-08-12T10:22:36.821Z,101745.31
2022-08-12T10:25:17.297Z,101743.66
2022-08-12T10:28:03.927Z,101751.53
2022-08-12T10:30:40.228Z,101746.31
2022-08-12T10:33:18.981Z,101734.69
2022-08-12T10:35:49.393Z,101743.19
2022-08-12T10:38:33.283Z,101734.69
2022-08-12T10:41:05.288Z,101734.88
2022-08-12T10:43:54.327Z,101719.75
2022-08-12T10:46:22.443Z,101727.31
2022-08-12T10:49:05.747Z,101726.38
2022-08-12T10:52:04.932Z,101727.72
2022-08-12T10:54:29.446Z,101723.19
2022-08-12T10:56:55.719Z,101711.41
2022-08-12T11:00:30.158Z,101730.00
2022-08-12T11:04:25.627Z,101727.22
2022-08-12T11:04:55.256Z,101718.38
2022-08-12T11:08:37.582Z,101717.72
2022-08-12T11:10:08.141Z,101716.25
2022-08-12T11:12:55.986Z,101719.75
2022-08-12T11:15:32.657Z,101716.41
2022-08-12T11:18:06.936Z,101712.81
2022-08-12T11:20:38.742Z,101706.97
2022-08-12T11:23:25.018Z,101702.28
2022-08-12T11:25:58.123Z,101700.72
2022-08-12T11:28:33.480Z,101697.50
2022-08-12T11:31:01.779Z,101697.50
2022-08-12T11:34:05.425Z,101691.44
2022-08-12T11:36:14.757Z,101689.91
2022-08-12T11:38:41.395Z,101687.63
2022-08-12T11:41:09.166Z,101679.16
2022-08-12T11:43:50.667Z,101676.69
2022-08-12T11:46:21.861Z,101684.00
2022-08-12T11:48:51.522Z,101675.84
2022-08-12T11:51:19.095Z,101674.28
2022-08-12T11:53:56.977Z,101681.72
2022-08-12T11:56:24.880Z,101677.47
2022-08-12T12:02:04.920Z,101677.22
2022-08-12T12:04:31.726Z,101676.34
2022-08-12T12:07:06.755Z,101678.06
2022-08-12T12:09:52.235Z,101663.91
2022-08-12T12:12:20.095Z,101656.66
2022-08-12T12:14:47.785Z,101661.16
2022-08-12T12:17:21.433Z,101658.63
2022-08-12T12:19:48.483Z,101674.88
2022-08-12T12:22:15.808Z,101661.88
2022-08-12T12:24:49.588Z,101668.72
2022-08-12T12:27:18.217Z,101668.91
2022-08-12T12:30:17.818Z,101663.50
2022-08-12T12:32:32.514Z,101666.47
2022-08-12T12:35:14.474Z,101660.47
2022-08-12T12:38:03.985Z,101654.34
2022-08-12T12:40:31.617Z,101646.72
2022-08-12T12:43:04.992Z,101655.34
2022-08-12T12:45:32.388Z,101654.94
2022-08-12T12:47:59.691Z,101651.13
2022-08-12T12:50:35.334Z,101662.66
2022-08-12T12:53:02.397Z,101652.59
2022-08-12T12:55:35.544Z,101653.88
2022-08-12T12:58:02.393Z,101644.44
2022-08-12T13:00:28.663Z,101648.91
2022-08-12T13:02:55.050Z,101652.75
2022-08-12T13:05:21.342Z,101647.56
2022-08-12T13:08:00.984Z,101644.72
2022-08-12T13:10:32.045Z,101647.50
2022-08-12T13:14:08.994Z,101650.38
2022-08-12T13:15:49.234Z,101648.91
2022-08-12T13:18:15.497Z,101648.94
2022-08-12T13:20:43.246Z,101646.19
2022-08-12T13:23:36.133Z,101639.34
2022-08-12T13:25:56.678Z,101643.16
2022-08-12T13:28:22.906Z,101638.91
2022-08-12T13:30:54.806Z,101633.75
2022-08-12T13:33:21.086Z,101631.75
2022-08-12T13:36:05.901Z,101634.84
2022-08-12T13:38:35.027Z,101629.09
2022-08-12T13:41:01.647Z,101635.22
2022-08-12T13:43:40.347Z,101631.81
2022-08-12T13:46:06.963Z,101633.72
2022-08-12T13:48:38.261Z,101627.22
2022-08-12T13:51:04.526Z,101615.28
2022-08-12T13:53:54.874Z,101618.31
2022-08-12T13:56:16.945Z,101622.00
2022-08-12T13:58:46.896Z,101618.19
2022-08-12T14:01:19.077Z,101612.56
2022-08-12T14:03:50.444Z,101610.03
2022-08-12T14:06:17.890Z,101612.09
2022-08-12T14:08:44.938Z,101614.78
2022-08-12T14:11:16.252Z,101613.69
2022-08-12T14:14:03.254Z,101600.78
2022-08-12T14:16:37.834Z,101596.59
2022-08-12T14:19:22.265Z,101598.09
2022-08-12T14:21:59.425Z,101608.63
2022-08-12T14:24:27.065Z,101609.13
2022-08-12T14:26:53.501Z,101602.47
2022-08-12T14:29:38.268Z,101595.97
2022-08-12T14:32:07.200Z,101586.06
2022-08-12T14:34:42.812Z,101589.97
2022-08-12T14:37:13.119Z,101583.19
2022-08-12T14:39:57.001Z,101584.59
2022-08-12T14:42:23.447Z,101585.94
2022-08-12T14:44:58.039Z,101590.59
2022-08-12T14:47:26.345Z,101575.63
2022-08-12T14:50:33.790Z,101582.94
2022-08-12T14:54:40.426Z,101584.53
2022-08-12T14:58:14.505Z,101564.53
2022-08-12T15:00:44.713Z,101564.53
2022-08-12T15:03:17.108Z,101562.34
2022-08-12T15:06:05.420Z,101559.19
2022-08-12T15:08:29.516Z,101569.00
2022-08-12T15:10:57.663Z,101557.72
2022-08-12T15:13:23.952Z,101561.06
2022-08-12T15:15:52.051Z,101561.69
2022-08-12T15:18:21.744Z,101547.69
2022-08-12T15:20:48.986Z,101551.03
2022-08-12T15:23:17.742Z,101544.81
2022-08-12T15:25:47.816Z,101541.28
2022-08-12T15:28:22.385Z,101538.38
2022-08-12T15:30:49.222Z,101539.25
2022-08-12T15:33:20.976Z,101543.75
2022-08-12T15:35:53.102Z,101530.56
2022-08-12T15:38:20.837Z,101532.63
2022-08-12T15:40:48.342Z,101541.25
2022-08-12T15:43:14.848Z,101536.03
2022-08-12T15:46:01.065Z,101529.56
2022-08-12T15:48:27.374Z,101537.47
2022-08-12T15:50:56.800Z,101532.59
2022-08-12T15:53:23.411Z,101550.00
2022-08-12T15:55:53.484Z,101542.22
2022-08-12T15:58:27.076Z,101533.16
2022-08-12T16:00:53.530Z,101530.09
2022-08-12T16:03:25.757Z,101529.75
2022-08-12T16:06:12.229Z,101526.47
2022-08-12T16:08:38.501Z,101531.91
2022-08-12T16:11:14.942Z,101528.81
2022-08-12T16:13:45.135Z,101539.97
2022-08-12T16:16:22.757Z,101524.59
2022-08-12T16:18:50.957Z,101520.31
2022-08-12T16:21:51.257Z,101515.13
2022-08-12T16:24:03.496Z,101522.44
2022-08-12T16:26:32.628Z,101520.72
2022-08-12T16:29:15.382Z,101519.88
2022-08-12T16:31:42.488Z,101523.53
2022-08-12T16:34:10.877Z,101526.69
2022-08-12T16:36:52.459Z,101518.47
2022-08-12T16:39:19.774Z,101515.56
2022-08-12T16:41:46.376Z,101514.56
2022-08-12T16:44:12.602Z,101522.28
2022-08-12T16:46:57.999Z,101517.41
2022-08-12T16:49:24.526Z,101509.06
2022-08-12T16:51:51.716Z,101508.00
2022-08-12T16:54:17.958Z,101503.03
2022-08-12T16:56:55.176Z,101506.66
2022-08-12T16:59:24.237Z,101498.22
2022-08-12T17:01:50.624Z,101494.66
2022-08-12T17:04:18.006Z,101494.16
2022-08-12T17:06:44.826Z,101497.69
2022-08-12T17:09:17.820Z,101492.78
2022-08-12T17:11:44.658Z,101491.88
2022-08-12T17:14:13.153Z,101488.56
2022-08-12T17:16:39.406Z,101479.91
2022-08-12T17:19:09.318Z,101480.28
2022-08-12T17:21:41.224Z,101480.16
2022-08-12T17:24:18.078Z,101476.94
2022-08-12T17:26:49.610Z,101477.41
2022-08-12T17:29:16.651Z,101474.69
2022-08-12T17:32:00.313Z,101465.16
2022-08-12T17:34:28.497Z,101467.09
2022-08-12T17:36:54.743Z,101462.00
2022-08-12T17:39:21.546Z,101470.97
2022-08-12T17:41:56.795Z,101466.31
2022-08-12T17:44:23.697Z,101471.50
2022-08-12T17:46:53.977Z,101465.22
2022-08-12T17:50:03.019Z,101467.97
2022-08-12T17:52:06.643Z,101461.28
2022-08-12T17:54:32.910Z,101469.91
2022-08-12T17:56:59.157Z,101475.06
2022-08-12T17:59:48.249Z,101465.44
2022-08-12T18:02:13.751Z,101471.69
2022-08-12T18:04:39.976Z,101467.44
2022-08-12T18:07:26.187Z,101464.69
2022-08-12T18:09:54.938Z,101469.16
2022-08-12T18:12:24.560Z,101474.09
2022-08-12T18:14:52.803Z,101473.66
2022-08-12T18:17:20.121Z,101479.63
2022-08-12T18:20:06.319Z,101475.38
2022-08-12T18:22:33.966Z,101483.03
2022-08-12T18:25:02.152Z,101477.22
2022-08-12T18:27:44.387Z,101478.72
2022-08-12T18:30:11.674Z,101474.63
2022-08-12T18:32:58.347Z,101476.72
2022-08-12T18:35:46.283Z,101469.88
2022-08-12T18:38:10.879Z,101474.09
2022-08-12T18:40:42.845Z,101480.03
2022-08-12T18:43:14.942Z,101483.34
2022-08-12T18:45:46.952Z,101489.72
2022-08-12T18:48:13.705Z,101483.69
2022-08-12T18:50:49.194Z,101484.91
2022-08-12T18:53:30.954Z,101491.69
2022-08-12T18:56:02.501Z,101493.97
2022-08-12T18:58:30.380Z,101503.28
2022-08-12T19:00:57.026Z,101496.81
2022-08-12T19:03:38.805Z,101506.97
2022-08-12T19:06:06.188Z,101503.69
2022-08-12T19:08:32.503Z,101500.88
2022-08-12T19:10:58.703Z,101499.97
2022-08-12T19:13:25.250Z,101493.50
2022-08-12T19:16:01.671Z,101505.34
2022-08-12T19:18:29.268Z,101506.34
2022-08-12T19:20:56.488Z,101506.06
2022-08-12T19:23:22.685Z,101508.78
2022-08-12T19:26:01.354Z,101507.47
2022-08-12T19:28:30.288Z,101509.94
2022-08-12T19:31:02.020Z,101509.00
2022-08-12T19:33:28.246Z,101511.66
2022-08-12T19:36:07.689Z,101503.31
2022-08-12T19:38:46.833Z,101505.78
2022-08-12T19:41:23.138Z,101501.91
2022-08-12T19:44:00.784Z,101498.88
2022-08-12T19:46:35.565Z,101498.59
2022-08-12T19:49:04.093Z,101494.69
2022-08-12T19:51:30.569Z,101499.06
2022-08-12T19:53:59.729Z,101494.13
2022-08-12T19:56:25.965Z,101494.91
2022-08-12T19:58:52.176Z,101494.59
2022-08-12T20:01:20.156Z,101505.19
2022-08-12T20:03:46.433Z,101501.06
2022-08-12T20:06:29.308Z,101505.47
2022-08-12T20:08:57.633Z,101503.28
2022-08-12T20:12:09.896Z,101508.31
2022-08-12T20:14:10.048Z,101508.88
2022-08-12T20:16:57.408Z,101510.31
2022-08-12T20:19:23.390Z,101519.38
2022-08-12T20:21:49.862Z,101522.00
2022-08-12T20:24:16.080Z,101522.78
2022-08-12T20:26:45.509Z,101529.00
2022-08-12T20:29:12.379Z,101535.28
2022-08-12T20:31:38.599Z,101523.28
2022-08-12T20:34:04.824Z,101523.13
2022-08-12T20:36:42.469Z,101519.09
2022-08-12T20:39:34.182Z,101519.16
2022-08-12T20:41:56.505Z,101525.25
2022-08-12T20:44:22.709Z,101516.00
2022-08-12T20:46:48.929Z,101515.00
2022-08-12T20:49:17.757Z,101520.38
2022-08-12T20:51:55.812Z,101515.59
2022-08-12T20:54:22.425Z,101512.72
2022-08-12T20:56:48.698Z,101510.31
2022-08-12T20:59:20.369Z,101500.03
2022-08-12T21:01:48.573Z,101501.56
2022-08-12T21:04:15.220Z,101497.47
2022-08-12T21:06:42.283Z,101512.66
2022-08-12T21:09:08.485Z,101510.25
2022-08-12T21:11:35.773Z,101512.34
2022-08-12T21:14:03.933Z,101519.25
2022-08-12T21:16:31.472Z,101514.25
2022-08-12T21:19:08.017Z,101527.56
2022-08-12T21:21:46.851Z,101522.59
2022-08-12T21:24:16.661Z,101526.56
2022-08-12T21:26:42.890Z,101518.81
2022-08-12T21:29:19.697Z,101512.63
2022-08-12T21:32:39.665Z,101513.81
2022-08-12T21:34:32.296Z,101519.88
2022-08-12T21:36:58.524Z,101515.56
2022-08-12T21:39:35.909Z,101513.34
2022-08-12T21:42:06.681Z,101524.06
2022-08-12T21:45:45.886Z,101530.25
2022-08-12T21:47:22.018Z,101532.72
2022-08-12T21:49:55.374Z,101525.66
2022-08-12T21:52:22.616Z,101528.91
2022-08-12T21:55:00.607Z,101523.03
2022-08-12T21:57:26.827Z,101526.34
2022-08-12T21:59:53.996Z,101522.38
2022-08-12T22:02:20.414Z,101522.91
2022-08-12T22:04:49.768Z,101529.25
2022-08-12T22:07:18.587Z,101527.22
2022-08-12T22:09:45.276Z,101530.84
2022-08-12T22:12:11.881Z,101526.91
2022-08-12T22:14:38.260Z,101524.81
2022-08-12T22:17:06.446Z,101528.63
2022-08-12T22:19:33.710Z,101526.03
2022-08-12T22:22:04.129Z,101526.22
2022-08-12T22:24:31.222Z,101542.00
2022-08-12T22:26:57.444Z,101541.50
2022-08-12T22:29:26.696Z,101542.88
2022-08-12T22:31:53.612Z,101538.75
2022-08-12T22:34:19.854Z,101539.25
2022-08-12T22:36:46.152Z,101540.59
2022-08-12T22:39:16.090Z,101531.81
2022-08-12T22:41:42.721Z,101533.34
2022-08-12T22:44:08.995Z,101538.50
2022-08-12T22:46:36.812Z,101538.84
2022-08-12T22:49:03.404Z,101537.63
2022-08-12T22:51:42.938Z,101537.97
2022-08-12T22:54:35.024Z,101537.25
2022-08-12T22:57:01.806Z,101537.59
2022-08-12T22:59:49.639Z,101533.63
2022-08-12T23:02:15.235Z,101528.81
2022-08-12T23:04:41.719Z,101533.59
2022-08-12T23:07:09.346Z,101539.44
2022-08-12T23:09:44.807Z,101536.19
2022-08-12T23:12:22.711Z,101537.53
2022-08-12T23:14:51.483Z,101538.72
2022-08-12T23:17:21.227Z,101533.56
2022-08-12T23:20:03.930Z,101528.03
2022-08-12T23:22:36.097Z,101525.59
2022-08-12T23:25:03.395Z,101527.66
2022-08-12T23:27:44.231Z,101525.06
2022-08-12T23:30:19.072Z,101520.94
2022-08-12T23:32:54.574Z,101529.34
2022-08-12T23:35:45.547Z,101523.97
2022-08-12T23:38:12.265Z,101519.53
2022-08-12T23:40:57.517Z,101523.13
2022-08-12T23:43:23.789Z,101521.38
2022-08-12T23:46:00.950Z,101520.53
2022-08-12T23:48:31.504Z,101519.69
2022-08-12T23:50:58.046Z,101523.28
2022-08-12T23:53:24.271Z,101520.72
2022-08-12T23:55:58.700Z,101527.22
2022-08-12T23:58:26.323Z,101527.22
